sensor_id;sensor_type;location;lat;lon;timestamp;pressure;altitude;pressure_sealevel;temperature;humidity
55759;BME280;41678;52.126;20.664;2022-07-21T00:05:00;100767.09;;;20.55;60.59
55759;BME280;41678;52.126;20.664;2022-07-21T00:10:23;100768.19;;;20.50;60.74
55759;BME280;41678;52.126;20.664;2022-07-21T00:15:43;100772.16;;;20.42;60.70
55759;BME280;41678;52.126;20.664;2022-07-21T00:21:03;100772.34;;;20.37;60.33
55759;BME280;41678;52.126;20.664;2022-07-21T00:26:22;100764.81;;;20.26;60.88
55759;BME280;41678;52.126;20.664;2022-07-21T00:31:41;100765.97;;;20.20;60.29
55759;BME280;41678;52.126;20.664;2022-07-21T00:37:01;100763.75;;;20.09;60.80
55759;BME280;41678;52.126;20.664;2022-07-21T00:42:25;100757.69;;;20.06;60.65
55759;BME280;41678;52.126;20.664;2022-07-21T00:47:46;100759.81;;;19.98;61.01
55759;BME280;41678;52.126;20.664;2022-07-21T00:53:05;100763.81;;;19.87;61.25
55759;BME280;41678;52.126;20.664;2022-07-21T00:58:25;100772.00;;;19.82;61.11
55759;BME280;41678;52.126;20.664;2022-07-21T01:03:45;100772.34;;;19.75;61.31
55759;BME280;41678;52.126;20.664;2022-07-21T01:09:05;100785.00;;;19.70;60.98
55759;BME280;41678;52.126;20.664;2022-07-21T01:14:25;100796.88;;;19.62;61.29
55759;BME280;41678;52.126;20.664;2022-07-21T01:19:45;100796.25;;;19.56;61.26
55759;BME280;41678;52.126;20.664;2022-07-21T01:25:06;100802.59;;;19.53;61.12
55759;BME280;41678;52.126;20.664;2022-07-21T01:30:26;100805.53;;;19.47;61.01
55759;BME280;41678;52.126;20.664;2022-07-21T01:35:45;100800.41;;;19.40;61.15
55759;BME280;41678;52.126;20.664;2022-07-21T01:41:05;100796.41;;;19.30;61.19
55759;BME280;41678;52.126;20.664;2022-07-21T01:46:45;100803.03;;;19.20;61.40
55759;BME280;41678;52.126;20.664;2022-07-21T01:52:06;100803.31;;;19.12;61.44
55759;BME280;41678;52.126;20.664;2022-07-21T01:57:26;100806.28;;;19.04;61.41
55759;BME280;41678;52.126;20.664;2022-07-21T02:02:46;100803.03;;;18.96;61.81
55759;BME280;41678;52.126;20.664;2022-07-21T02:08:05;100804.31;;;18.86;62.39
55759;BME280;41678;52.126;20.664;2022-07-21T02:13:25;100810.69;;;18.81;61.57
55759;BME280;41678;52.126;20.664;2022-07-21T02:18:45;100812.63;;;18.76;61.95
55759;BME280;41678;52.126;20.664;2022-07-21T02:24:05;100813.81;;;18.69;61.75
55759;BME280;41678;52.126;20.664;2022-07-21T02:29:25;100817.63;;;18.62;61.97
55759;BME280;41678;52.126;20.664;2022-07-21T02:34:45;100816.94;;;18.57;61.77
55759;BME280;41678;52.126;20.664;2022-07-21T02:40:05;100806.50;;;18.50;61.88
55759;BME280;41678;52.126;20.664;2022-07-21T02:45:25;100797.78;;;18.45;61.90
55759;BME280;41678;52.126;20.664;2022-07-21T02:50:46;100799.75;;;18.40;62.15
55759;BME280;41678;52.126;20.664;2022-07-21T02:56:06;100784.81;;;18.36;62.10
55759;BME280;41678;52.126;20.664;2022-07-21T03:01:25;100785.81;;;18.32;62.03
55759;BME280;41678;52.126;20.664;2022-07-21T03:06:45;100776.19;;;18.27;62.20
55759;BME280;41678;52.126;20.664;2022-07-21T03:12:05;100782.56;;;18.23;62.30
55759;BME280;41678;52.126;20.664;2022-07-21T03:17:25;100782.75;;;18.17;62.65
55759;BME280;41678;52.126;20.664;2022-07-21T03:22:44;100800.59;;;18.15;62.65
55759;BME280;41678;52.126;20.664;2022-07-21T03:28:05;100794.50;;;18.11;62.29
55759;BME280;41678;52.126;20.664;2022-07-21T03:33:26;100797.25;;;18.10;62.33
55759;BME280;41678;52.126;20.664;2022-07-21T03:38:45;100798.22;;;18.07;62.82
55759;BME280;41678;52.126;20.664;2022-07-21T03:44:05;100808.03;;;18.07;62.52
55759;BME280;41678;52.126;20.664;2022-07-21T03:49:24;100793.00;;;18.04;62.18
55759;BME280;41678;52.126;20.664;2022-07-21T03:54:44;100793.88;;;18.05;62.78
55759;BME280;41678;52.126;20.664;2022-07-21T04:00:07;100785.94;;;18.03;62.39
55759;BME280;41678;52.126;20.664;2022-07-21T04:05:32;100797.38;;;18.07;62.28
55759;BME280;41678;52.126;20.664;2022-07-21T04:10:52;100787.66;;;18.04;62.57
55759;BME280;41678;52.126;20.664;2022-07-21T04:16:12;100800.84;;;18.09;62.33
55759;BME280;41678;52.126;20.664;2022-07-21T04:21:31;100804.44;;;18.08;62.75
55759;BME280;41678;52.126;20.664;2022-07-21T04:26:51;100797.25;;;18.10;62.65
55759;BME280;41678;52.126;20.664;2022-07-21T04:32:11;100794.34;;;18.16;63.52
55759;BME280;41678;52.126;20.664;2022-07-21T04:37:31;100791.38;;;18.25;63.96
55759;BME280;41678;52.126;20.664;2022-07-21T04:42:50;100780.38;;;18.35;63.48
55759;BME280;41678;52.126;20.664;2022-07-21T04:48:10;100774.81;;;18.41;63.68
55759;BME280;41678;52.126;20.664;2022-07-21T04:53:30;100777.97;;;18.52;63.87
55759;BME280;41678;52.126;20.664;2022-07-21T04:58:50;100776.59;;;18.66;65.11
55759;BME280;41678;52.126;20.664;2022-07-21T05:04:09;100782.50;;;18.74;64.55
55759;BME280;41678;52.126;20.664;2022-07-21T05:09:28;100793.63;;;18.86;64.16
55759;BME280;41678;52.126;20.664;2022-07-21T05:14:48;100792.44;;;18.93;64.16
55759;BME280;41678;52.126;20.664;2022-07-21T05:20:08;100803.50;;;19.07;64.51
55759;BME280;41678;52.126;20.664;2022-07-21T05:25:29;100797.56;;;19.23;63.95
55759;BME280;41678;52.126;20.664;2022-07-21T05:30:51;100787.19;;;19.37;64.02
55759;BME280;41678;52.126;20.664;2022-07-21T05:36:11;100795.50;;;19.52;63.54
55759;BME280;41678;52.126;20.664;2022-07-21T05:41:31;100788.81;;;19.64;63.50
55759;BME280;41678;52.126;20.664;2022-07-21T05:46:50;100780.22;;;19.78;63.39
55759;BME280;41678;52.126;20.664;2022-07-21T05:52:10;100778.75;;;19.91;63.04
55759;BME280;41678;52.126;20.664;2022-07-21T05:57:30;100790.59;;;20.06;62.95
55759;BME280;41678;52.126;20.664;2022-07-21T06:02:50;100788.78;;;20.28;62.64
55759;BME280;41678;52.126;20.664;2022-07-21T06:08:09;100782.75;;;20.43;62.50
55759;BME280;41678;52.126;20.664;2022-07-21T06:13:29;100787.28;;;20.62;62.23
55759;BME280;41678;52.126;20.664;2022-07-21T06:18:49;100777.50;;;20.82;61.68
55759;BME280;41678;52.126;20.664;2022-07-21T06:24:10;100777.78;;;20.94;62.18
55759;BME280;41678;52.126;20.664;2022-07-21T06:29:29;100773.66;;;21.06;62.12
55759;BME280;41678;52.126;20.664;2022-07-21T06:34:49;100777.25;;;21.25;61.62
55759;BME280;41678;52.126;20.664;2022-07-21T06:40:09;100775.56;;;21.41;61.57
55759;BME280;41678;52.126;20.664;2022-07-21T06:45:29;100788.84;;;21.62;61.13
55759;BME280;41678;52.126;20.664;2022-07-21T06:50:49;100780.19;;;21.74;60.39
55759;BME280;41678;52.126;20.664;2022-07-21T06:56:09;100777.78;;;21.87;59.98
55759;BME280;41678;52.126;20.664;2022-07-21T07:01:29;100780.63;;;22.02;60.01
55759;BME280;41678;52.126;20.664;2022-07-21T07:06:48;100786.81;;;22.20;59.49
55759;BME280;41678;52.126;20.664;2022-07-21T07:12:11;100791.63;;;22.31;59.54
55759;BME280;41678;52.126;20.664;2022-07-21T07:17:30;100797.03;;;22.47;58.99
55759;BME280;41678;52.126;20.664;2022-07-21T07:22:50;100799.16;;;22.58;59.18
55759;BME280;41678;52.126;20.664;2022-07-21T07:28:10;100802.75;;;22.74;58.92
55759;BME280;41678;52.126;20.664;2022-07-21T07:33:30;100814.47;;;22.89;58.95
55759;BME280;41678;52.126;20.664;2022-07-21T07:38:53;100821.84;;;23.02;58.65
55759;BME280;41678;52.126;20.664;2022-07-21T07:44:13;100801.66;;;23.11;58.76
55759;BME280;41678;52.126;20.664;2022-07-21T07:49:33;100805.56;;;23.21;57.12
55759;BME280;41678;52.126;20.664;2022-07-21T07:54:53;100800.66;;;23.29;58.27
55759;BME280;41678;52.126;20.664;2022-07-21T08:00:15;100801.88;;;23.40;57.82
55759;BME280;41678;52.126;20.664;2022-07-21T08:05:36;100797.66;;;23.50;57.33
55759;BME280;41678;52.126;20.664;2022-07-21T08:10:56;100797.34;;;23.56;56.82
55759;BME280;41678;52.126;20.664;2022-07-21T08:16:16;100795.94;;;23.65;57.20
55759;BME280;41678;52.126;20.664;2022-07-21T08:21:36;100787.34;;;23.74;56.94
55759;BME280;41678;52.126;20.664;2022-07-21T08:26:55;100800.91;;;23.87;56.46
55759;BME280;41678;52.126;20.664;2022-07-21T08:32:16;100799.22;;;24.01;56.71
55759;BME280;41678;52.126;20.664;2022-07-21T08:37:38;100799.09;;;24.18;55.98
55759;BME280;41678;52.126;20.664;2022-07-21T08:42:58;100802.84;;;24.30;55.73
55759;BME280;41678;52.126;20.664;2022-07-21T08:48:23;100813.13;;;24.53;55.44
55759;BME280;41678;52.126;20.664;2022-07-21T08:53:45;100813.16;;;24.67;55.42
55759;BME280;41678;52.126;20.664;2022-07-21T08:59:05;100800.88;;;24.78;54.66
55759;BME280;41678;52.126;20.664;2022-07-21T09:10:15;100791.88;;;25.06;54.22
55759;BME280;41678;52.126;20.664;2022-07-21T09:15:34;100786.66;;;25.17;53.47
55759;BME280;41678;52.126;20.664;2022-07-21T09:20:55;100792.88;;;25.32;54.03
55759;BME280;41678;52.126;20.664;2022-07-21T09:26:16;100787.63;;;25.44;54.70
55759;BME280;41678;52.126;20.664;2022-07-21T09:31:36;100781.47;;;25.56;54.52
55759;BME280;41678;52.126;20.664;2022-07-21T09:36:57;100785.06;;;25.70;55.31
55759;BME280;41678;52.126;20.664;2022-07-21T09:47:38;100786.50;;;25.88;54.13
55759;BME280;41678;52.126;20.664;2022-07-21T09:52:58;100776.59;;;26.02;54.48
55759;BME280;41678;52.126;20.664;2022-07-21T09:58:18;100779.81;;;26.07;53.82
55759;BME280;41678;52.126;20.664;2022-07-21T10:03:38;100773.34;;;26.10;52.52
55759;BME280;41678;52.126;20.664;2022-07-21T10:09:00;100768.00;;;26.23;53.76
55759;BME280;41678;52.126;20.664;2022-07-21T10:14:20;100769.41;;;26.28;53.04
55759;BME280;41678;52.126;20.664;2022-07-21T10:20:08;100766.16;;;26.36;53.26
55759;BME280;41678;52.126;20.664;2022-07-21T10:25:30;100754.94;;;26.42;52.70
55759;BME280;41678;52.126;20.664;2022-07-21T10:30:55;100758.91;;;26.50;53.44
55759;BME280;41678;52.126;20.664;2022-07-21T10:41:50;100731.50;;;26.56;50.37
55759;BME280;41678;52.126;20.664;2022-07-21T10:47:17;100728.78;;;26.56;50.74
55759;BME280;41678;52.126;20.664;2022-07-21T10:58:31;100733.81;;;26.73;51.66
55759;BME280;41678;52.126;20.664;2022-07-21T11:04:14;100735.09;;;26.81;51.33
55759;BME280;41678;52.126;20.664;2022-07-21T11:10:14;100724.72;;;26.87;50.90
55759;BME280;41678;52.126;20.664;2022-07-21T11:21:11;100713.75;;;27.02;51.74
55759;BME280;41678;52.126;20.664;2022-07-21T11:26:31;100701.63;;;27.08;51.32
55759;BME280;41678;52.126;20.664;2022-07-21T11:31:52;100695.00;;;27.12;51.23
55759;BME280;41678;52.126;20.664;2022-07-21T11:37:15;100690.34;;;27.14;52.04
55759;BME280;41678;52.126;20.664;2022-07-21T11:42:35;100695.31;;;27.20;51.66
55759;BME280;41678;52.126;20.664;2022-07-21T11:47:55;100691.53;;;27.23;51.96
55759;BME280;41678;52.126;20.664;2022-07-21T11:53:15;100686.72;;;27.26;51.09
55759;BME280;41678;52.126;20.664;2022-07-21T11:58:35;100684.56;;;27.43;51.16
55759;BME280;41678;52.126;20.664;2022-07-21T12:03:55;100685.44;;;27.43;50.22
55759;BME280;41678;52.126;20.664;2022-07-21T12:09:14;100674.38;;;27.47;50.11
55759;BME280;41678;52.126;20.664;2022-07-21T12:14:42;100674.72;;;27.42;50.58
55759;BME280;41678;52.126;20.664;2022-07-21T12:20:07;100675.25;;;27.47;50.94
55759;BME280;41678;52.126;20.664;2022-07-21T12:25:39;100669.84;;;27.47;51.25
55759;BME280;41678;52.126;20.664;2022-07-21T12:31:14;100670.38;;;27.52;51.50
55759;BME280;41678;52.126;20.664;2022-07-21T12:36:37;100671.69;;;27.47;50.73
55759;BME280;41678;52.126;20.664;2022-07-21T12:42:03;100665.84;;;27.53;50.70
55759;BME280;41678;52.126;20.664;2022-07-21T12:47:24;100665.13;;;27.62;51.71
55759;BME280;41678;52.126;20.664;2022-07-21T12:52:46;100658.72;;;27.63;52.09
55759;BME280;41678;52.126;20.664;2022-07-21T12:58:08;100646.47;;;27.70;50.48
55759;BME280;41678;52.126;20.664;2022-07-21T13:03:29;100662.91;;;27.67;50.96
55759;BME280;41678;52.126;20.664;2022-07-21T13:08:50;100654.06;;;27.65;50.28
55759;BME280;41678;52.126;20.664;2022-07-21T13:14:11;100654.69;;;27.69;50.54
55759;BME280;41678;52.126;20.664;2022-07-21T13:19:31;100649.28;;;27.69;50.95
55759;BME280;41678;52.126;20.664;2022-07-21T13:24:51;100645.81;;;27.67;49.89
55759;BME280;41678;52.126;20.664;2022-07-21T13:30:12;100632.78;;;27.72;51.39
55759;BME280;41678;52.126;20.664;2022-07-21T13:35:33;100632.53;;;27.75;51.25
55759;BME280;41678;52.126;20.664;2022-07-21T13:40:53;100634.69;;;27.83;51.34
55759;BME280;41678;52.126;20.664;2022-07-21T13:46:14;100633.31;;;27.77;51.47
55759;BME280;41678;52.126;20.664;2022-07-21T13:51:34;100620.28;;;27.82;50.42
55759;BME280;41678;52.126;20.664;2022-07-21T13:56:54;100609.56;;;27.81;51.51
55759;BME280;41678;52.126;20.664;2022-07-21T14:02:16;100608.72;;;27.80;51.31
55759;BME280;41678;52.126;20.664;2022-07-21T14:07:36;100604.03;;;27.82;50.65
55759;BME280;41678;52.126;20.664;2022-07-21T14:12:56;100603.16;;;27.82;50.99
55759;BME280;41678;52.126;20.664;2022-07-21T14:18:16;100600.34;;;27.83;51.05
55759;BME280;41678;52.126;20.664;2022-07-21T14:23:37;100597.66;;;27.83;51.17
55759;BME280;41678;52.126;20.664;2022-07-21T14:28:58;100595.41;;;27.89;51.69
55759;BME280;41678;52.126;20.664;2022-07-21T14:34:21;100579.19;;;27.89;51.94
55759;BME280;41678;52.126;20.664;2022-07-21T14:39:42;100577.47;;;27.88;51.30
55759;BME280;41678;52.126;20.664;2022-07-21T14:45:02;100577.47;;;27.88;51.56
55759;BME280;41678;52.126;20.664;2022-07-21T14:50:25;100564.81;;;27.88;51.45
55759;BME280;41678;52.126;20.664;2022-07-21T14:55:46;100563.72;;;27.91;51.64
55759;BME280;41678;52.126;20.664;2022-07-21T15:01:07;100561.84;;;27.91;50.72
55759;BME280;41678;52.126;20.664;2022-07-21T15:06:29;100554.72;;;27.90;51.27
55759;BME280;41678;52.126;20.664;2022-07-21T15:11:50;100543.03;;;28.01;52.49
55759;BME280;41678;52.126;20.664;2022-07-21T15:17:10;100548.22;;;27.93;51.29
55759;BME280;41678;52.126;20.664;2022-07-21T15:22:30;100537.00;;;27.97;51.74
55759;BME280;41678;52.126;20.664;2022-07-21T15:27:50;100530.84;;;27.95;51.44
55759;BME280;41678;52.126;20.664;2022-07-21T15:33:12;100533.44;;;27.97;52.17
55759;BME280;41678;52.126;20.664;2022-07-21T15:38:33;100527.94;;;27.98;52.48
55759;BME280;41678;52.126;20.664;2022-07-21T15:43:54;100515.25;;;27.99;52.68
55759;BME280;41678;52.126;20.664;2022-07-21T15:49:15;100514.63;;;27.95;51.85
55759;BME280;41678;52.126;20.664;2022-07-21T15:54:37;100519.19;;;27.95;51.61
55759;BME280;41678;52.126;20.664;2022-07-21T15:59:57;100515.34;;;27.97;52.98
55759;BME280;41678;52.126;20.664;2022-07-21T16:05:20;100510.09;;;27.96;52.80
55759;BME280;41678;52.126;20.664;2022-07-21T16:10:41;100512.06;;;27.94;51.85
55759;BME280;41678;52.126;20.664;2022-07-21T16:16:02;100508.47;;;27.93;51.63
55759;BME280;41678;52.126;20.664;2022-07-21T16:21:22;100513.78;;;27.95;52.53
55759;BME280;41678;52.126;20.664;2022-07-21T16:26:44;100504.66;;;27.96;53.30
55759;BME280;41678;52.126;20.664;2022-07-21T16:32:05;100512.06;;;27.94;53.40
55759;BME280;41678;52.126;20.664;2022-07-21T16:37:26;100506.66;;;27.94;53.09
55759;BME280;41678;52.126;20.664;2022-07-21T16:42:47;100500.97;;;27.97;53.87
55759;BME280;41678;52.126;20.664;2022-07-21T16:48:08;100494.09;;;27.93;53.76
55759;BME280;41678;52.126;20.664;2022-07-21T16:53:28;100500.63;;;27.90;53.69
55759;BME280;41678;52.126;20.664;2022-07-21T16:58:48;100487.84;;;27.81;52.90
55759;BME280;41678;52.126;20.664;2022-07-21T17:04:10;100480.97;;;27.77;53.08
55759;BME280;41678;52.126;20.664;2022-07-21T17:09:31;100471.38;;;27.73;53.03
55759;BME280;41678;52.126;20.664;2022-07-21T17:14:52;100466.09;;;27.71;53.81
55759;BME280;41678;52.126;20.664;2022-07-21T17:20:12;100451.09;;;27.67;53.67
55759;BME280;41678;52.126;20.664;2022-07-21T17:25:32;100453.91;;;27.65;54.92
55759;BME280;41678;52.126;20.664;2022-07-21T17:30:52;100454.06;;;27.64;55.29
55759;BME280;41678;52.126;20.664;2022-07-21T17:36:12;100443.16;;;27.54;54.68
55759;BME280;41678;52.126;20.664;2022-07-21T17:41:32;100439.16;;;27.47;55.02
55759;BME280;41678;52.126;20.664;2022-07-21T17:46:52;100438.56;;;27.43;55.51
55759;BME280;41678;52.126;20.664;2022-07-21T17:52:13;100435.00;;;27.31;55.37
55759;BME280;41678;52.126;20.664;2022-07-21T17:57:33;100439.06;;;27.25;55.55
55759;BME280;41678;52.126;20.664;2022-07-21T18:03:14;100433.63;;;27.14;55.51
55759;BME280;41678;52.126;20.664;2022-07-21T18:08:34;100437.94;;;27.05;55.61
55759;BME280;41678;52.126;20.664;2022-07-21T18:13:56;100431.56;;;26.95;55.62
55759;BME280;41678;52.126;20.664;2022-07-21T18:19:16;100418.84;;;26.84;56.12
55759;BME280;41678;52.126;20.664;2022-07-21T18:24:36;100425.09;;;26.73;56.38
55759;BME280;41678;52.126;20.664;2022-07-21T18:29:57;100416.97;;;26.62;56.33
55759;BME280;41678;52.126;20.664;2022-07-21T18:35:17;100427.75;;;26.50;56.31
55759;BME280;41678;52.126;20.664;2022-07-21T18:40:38;100425.09;;;26.37;56.51
55759;BME280;41678;52.126;20.664;2022-07-21T18:45:59;100415.25;;;26.25;56.96
55759;BME280;41678;52.126;20.664;2022-07-21T18:51:21;100428.66;;;26.13;56.52
55759;BME280;41678;52.126;20.664;2022-07-21T18:56:42;100427.13;;;25.98;56.96
55759;BME280;41678;52.126;20.664;2022-07-21T19:02:03;100432.44;;;25.86;57.12
55759;BME280;41678;52.126;20.664;2022-07-21T19:07:24;100427.31;;;25.70;57.47
55759;BME280;41678;52.126;20.664;2022-07-21T19:12:47;100426.59;;;25.55;57.13
55759;BME280;41678;52.126;20.664;2022-07-21T19:18:08;100435.53;;;25.43;57.21
55759;BME280;41678;52.126;20.664;2022-07-21T19:23:32;100426.75;;;25.28;57.60
55759;BME280;41678;52.126;20.664;2022-07-21T19:28:53;100431.16;;;25.16;57.46
55759;BME280;41678;52.126;20.664;2022-07-21T19:34:20;100436.53;;;25.03;57.49
55759;BME280;41678;52.126;20.664;2022-07-21T19:39:43;100427.72;;;24.88;57.68
55759;BME280;41678;52.126;20.664;2022-07-21T19:45:07;100428.44;;;24.77;57.61
55759;BME280;41678;52.126;20.664;2022-07-21T19:50:29;100428.50;;;24.62;58.03
55759;BME280;41678;52.126;20.664;2022-07-21T19:55:54;100424.94;;;24.49;57.75
55759;BME280;41678;52.126;20.664;2022-07-21T20:01:16;100420.28;;;24.38;58.00
55759;BME280;41678;52.126;20.664;2022-07-21T20:06:40;100418.63;;;24.23;58.50
55759;BME280;41678;52.126;20.664;2022-07-21T20:12:01;100420.97;;;24.14;58.01
55759;BME280;41678;52.126;20.664;2022-07-21T20:17:24;100421.75;;;24.02;58.34
55759;BME280;41678;52.126;20.664;2022-07-21T20:22:59;100419.88;;;23.89;58.23
55759;BME280;41678;52.126;20.664;2022-07-21T20:28:20;100410.88;;;23.76;59.29
55759;BME280;41678;52.126;20.664;2022-07-21T20:33:47;100404.38;;;23.66;58.67
55759;BME280;41678;52.126;20.664;2022-07-21T20:39:13;100406.72;;;23.57;58.45
55759;BME280;41678;52.126;20.664;2022-07-21T20:44:35;100404.72;;;23.46;58.49
55759;BME280;41678;52.126;20.664;2022-07-21T20:49:58;100410.66;;;23.37;58.83
55759;BME280;41678;52.126;20.664;2022-07-21T20:55:20;100405.78;;;23.29;58.93
55759;BME280;41678;52.126;20.664;2022-07-21T21:00:44;100406.53;;;23.17;59.06
55759;BME280;41678;52.126;20.664;2022-07-21T21:06:19;100405.28;;;23.08;58.81
55759;BME280;41678;52.126;20.664;2022-07-21T21:11:42;100398.78;;;22.98;59.43
55759;BME280;41678;52.126;20.664;2022-07-21T21:17:12;100401.13;;;22.88;59.31
55759;BME280;41678;52.126;20.664;2022-07-21T21:22:33;100401.72;;;22.78;59.20
55759;BME280;41678;52.126;20.664;2022-07-21T21:27:54;100399.31;;;22.74;59.04
55759;BME280;41678;52.126;20.664;2022-07-21T21:33:17;100396.34;;;22.64;59.44
55759;BME280;41678;52.126;20.664;2022-07-21T21:38:39;100401.47;;;22.53;60.19
55759;BME280;41678;52.126;20.664;2022-07-21T21:44:01;100401.03;;;22.44;59.64
55759;BME280;41678;52.126;20.664;2022-07-21T21:49:25;100394.41;;;22.35;59.52
55759;BME280;41678;52.126;20.664;2022-07-21T21:54:48;100395.03;;;22.25;59.56
55759;BME280;41678;52.126;20.664;2022-07-21T22:00:17;100390.81;;;22.20;59.43
55759;BME280;41678;52.126;20.664;2022-07-21T22:05:40;100388.50;;;22.14;59.54
55759;BME280;41678;52.126;20.664;2022-07-21T22:11:05;100382.78;;;22.04;60.33
55759;BME280;41678;52.126;20.664;2022-07-21T22:16:26;100388.59;;;21.97;60.08
55759;BME280;41678;52.126;20.664;2022-07-21T22:21:48;100390.78;;;21.90;59.99
55759;BME280;41678;52.126;20.664;2022-07-21T22:27:08;100387.69;;;21.82;60.01
55759;BME280;41678;52.126;20.664;2022-07-21T22:32:28;100377.28;;;21.75;59.85
55759;BME280;41678;52.126;20.664;2022-07-21T22:37:49;100381.28;;;21.68;59.91
55759;BME280;41678;52.126;20.664;2022-07-21T22:43:09;100381.50;;;21.63;59.76
55759;BME280;41678;52.126;20.664;2022-07-21T22:48:29;100383.78;;;21.55;60.43
55759;BME280;41678;52.126;20.664;2022-07-21T22:53:48;100374.44;;;21.46;61.45
55759;BME280;41678;52.126;20.664;2022-07-21T22:59:08;100375.78;;;21.37;61.45
55759;BME280;41678;52.126;20.664;2022-07-21T23:04:28;100370.72;;;21.33;60.75
55759;BME280;41678;52.126;20.664;2022-07-21T23:09:48;100365.78;;;21.25;60.46
55759;BME280;41678;52.126;20.664;2022-07-21T23:15:08;100375.03;;;21.19;60.68
55759;BME280;41678;52.126;20.664;2022-07-21T23:20:29;100366.34;;;21.14;60.41
55759;BME280;41678;52.126;20.664;2022-07-21T23:25:49;100371.88;;;21.11;60.76
55759;BME280;41678;52.126;20.664;2022-07-21T23:31:09;100366.94;;;21.03;61.71
55759;BME280;41678;52.126;20.664;2022-07-21T23:36:29;100372.53;;;20.99;61.28
55759;BME280;41678;52.126;20.664;2022-07-21T23:41:49;100366.75;;;20.90;61.13
55759;BME280;41678;52.126;20.664;2022-07-21T23:47:08;100367.06;;;20.84;60.84
55759;BME280;41678;52.126;20.664;2022-07-21T23:52:28;100361.06;;;20.79;60.90
55759;BME280;41678;52.126;20.664;2022-07-21T23:57:48;100355.97;;;20.74;60.60
